This is the latest recevied weather packets stored in our database for station/object IW1RID-3. If no packets are shown the sender has not sent any weather packets the latest 1 day(s).
| Time | Temp. | Humidity | Pressure | Rain* | Wind** | Luminosity | Snow |
|---|---|---|---|---|---|---|---|
| 1777761569 | 11.67° C | 59% | 1080.1 hPa | - | - | - | - |
| 1777760364 | 12.22° C | 57% | 1080.2 hPa | - | - | - | - |
| 1777759160 | 12.78° C | 56% | 1080.2 hPa | - | - | - | - |
| 1777754341 | 13.89° C | 53% | 1080.5 hPa | - | - | - | - |
| 1777753135 | 13.33° C | 54% | 1080.4 hPa | - | - | - | - |
| 1777751931 | 13.89° C | 52% | 1080.5 hPa | - | - | - | - |
| 1777750726 | 13.89° C | 51% | 1080.5 hPa | - | - | - | - |
| 1777749521 | 15° C | 48% | 1080.2 hPa | - | - | - | - |
| 1777748318 | 16.11° C | 43% | 1080.1 hPa | - | - | - | - |
| 1777747112 | 17.22° C | 42% | 1079.9 hPa | - | - | - | - |
| 1777745907 | 18.33° C | 38% | 1079.8 hPa | - | - | - | - |
| 1777744701 | 18.89° C | 36% | 1079.8 hPa | - | - | - | - |
| 1777743496 | 19.44° C | 36% | 1079.9 hPa | - | - | - | - |
| 1777742291 | 20.56° C | 33% | 1079.9 hPa | - | - | - | - |
| 1777741086 | 20° C | 32% | 1080 hPa | - | - | - | - |
| 1777739881 | 21.67° C | 29% | 1080.4 hPa | - | - | - | - |
| 1777738676 | 22.22° C | 29% | 1080.8 hPa | - | - | - | - |
| 1777737472 | 21.67° C | 32% | 1081 hPa | - | - | - | - |
| 1777736267 | 22.22° C | 30% | 1081.3 hPa | - | - | - | - |
| 1777735062 | 22.22° C | 31% | 1081.6 hPa | - | - | - | - |
| 1777733858 | 22.78° C | 29% | 1081.7 hPa | - | - | - | - |
| 1777732652 | 21.67° C | 32% | 1082 hPa | - | - | - | - |
| 1777731447 | 21.11° C | 33% | 1082.2 hPa | - | - | - | - |
| 1777730242 | 23.89° C | 29% | 1082.6 hPa | - | - | - | - |
| 1777729038 | 21.67° C | 28% | 1082.7 hPa | - | - | - | - |
* Rain since midnight (hover to see other rain measurements)
** Current wind speed in m/s (hover to see current wind gust speed)